Time;durP1;ratioP1;P1;durP2;ratioP2;P2;SDS_P1;SDS_P2;PMS_P1;PMS_P2;Temp;Humidity;BMP_temperature;BMP_pressure;BME280_temperature;BME280_humidity;BME280_pressure;Samples;Min_cycle;Max_cycle;Signal;HPM_P1;HPM_P2
2023/03/19 00:00:43;;;;;;;57.95;41.95;;;7.60;94.80;;;;;;5039799;28;20451;-46
2023/03/19 00:03:10;;;;;;;61.25;43.72;;;7.70;94.90;;;;;;5036693;28;20021;-48
2023/03/19 00:05:39;;;;;;;60.10;42.90;;;7.80;95.00;;;;;;5036533;28;20320;-45
2023/03/19 00:08:05;;;;;;;60.78;43.58;;;7.80;94.90;;;;;;5044595;28;20040;-46
2023/03/19 00:10:32;;;;;;;63.25;44.30;;;7.80;95.00;;;;;;5055093;28;20033;-46
2023/03/19 00:12:58;;;;;;;59.45;43.08;;;7.90;95.00;;;;;;5055124;28;20052;-45
2023/03/19 00:15:25;;;;;;;56.30;41.47;;;7.80;94.90;;;;;;5045532;28;20029;-49
2023/03/19 00:17:53;;;;;;;57.70;41.85;;;7.80;94.90;;;;;;5052088;28;20079;-47
2023/03/19 00:20:21;;;;;;;57.45;41.90;;;7.70;94.90;;;;;;5056463;28;20461;-45
2023/03/19 00:22:48;;;;;;;58.05;44.15;;;7.80;94.90;;;;;;5043888;28;20402;-45
2023/03/19 00:25:13;;;;;;;55.95;41.95;;;7.80;95.00;;;;;;5053999;28;20029;-45
2023/03/19 00:27:41;;;;;;;54.17;41.55;;;7.70;94.90;;;;;;5055389;28;20076;-47
2023/03/19 00:30:10;;;;;;;50.72;38.83;;;7.80;94.90;;;;;;5049499;28;20029;-46
2023/03/19 00:32:38;;;;;;;56.63;41.97;;;7.80;94.90;;;;;;5049646;28;20373;-45
2023/03/19 00:35:06;;;;;;;54.75;41.85;;;7.80;95.10;;;;;;5054730;28;20037;-46
2023/03/19 00:37:34;;;;;;;56.50;42.85;;;7.90;95.00;;;;;;5043920;28;20037;-48
2023/03/19 00:40:01;;;;;;;52.90;40.90;;;7.90;95.10;;;;;;5054397;28;20025;-45
2023/03/19 00:42:31;;;;;;;52.38;41.22;;;7.90;95.20;;;;;;5055635;28;20036;-45
2023/03/19 00:44:57;;;;;;;;;;;8.00;95.20;;;;;;5052168;28;20044;-45
2023/03/19 00:47:24;;;;;;;54.83;40.00;;;8.20;95.30;;;;;;5055333;28;20346;-45
2023/03/19 00:49:53;;;;;;;56.65;41.80;;;8.30;95.30;;;;;;5035669;28;20044;-44
2023/03/19 00:52:20;;;;;;;53.03;40.90;;;8.40;95.30;;;;;;5035450;28;20021;-45
2023/03/19 00:54:46;;;;;;;55.63;39.65;;;8.40;95.30;;;;;;5035193;28;20021;-46
2023/03/19 00:57:12;;;;;;;50.92;38.78;;;8.50;95.30;;;;;;5047559;28;20041;-46
2023/03/19 00:59:39;;;;;;;52.65;41.00;;;8.60;95.30;;;;;;5035873;28;20032;-44
2023/03/19 01:02:10;;;;;;;50.22;39.97;;;8.60;95.30;;;;;;5049588;28;20036;-45
2023/03/19 01:04:37;;;;;;;51.22;39.50;;;8.70;95.30;;;;;;5055267;28;20075;-45
2023/03/19 01:07:04;;;;;;;48.65;40.67;;;8.60;95.30;;;;;;5051369;28;20020;-48
2023/03/19 01:09:31;;;;;;;47.53;37.92;;;8.60;95.20;;;;;;5047769;28;20057;-48
2023/03/19 01:12:03;;;;;;;46.47;36.63;;;8.60;95.10;;;;;;5044175;28;20386;-50
2023/03/19 01:14:30;;;;;;;44.90;36.13;;;8.60;95.10;;;;;;5034865;28;20076;-45
2023/03/19 01:16:59;;;;;;;45.88;34.15;;;8.60;95.10;;;;;;5034183;28;20178;-45
2023/03/19 01:19:25;;;;;;;45.85;36.40;;;8.60;95.10;;;;;;5034348;28;20044;-49
2023/03/19 01:21:53;;;;;;;42.55;36.38;;;8.60;95.00;;;;;;5035291;28;20032;-47
2023/03/19 01:24:20;;;;;;;44.05;35.83;;;8.60;95.00;;;;;;5035070;28;20057;-45
2023/03/19 01:26:47;;;;;;;47.50;37.13;;;8.60;95.00;;;;;;5034913;28;20087;-45
2023/03/19 01:29:14;;;;;;;43.15;34.03;;;8.60;95.10;;;;;;5034756;28;20454;-46
2023/03/19 01:31:41;;;;;;;44.40;35.03;;;8.70;95.10;;;;;;5034829;28;20040;-45
2023/03/19 01:34:08;;;;;;;45.78;36.80;;;8.70;95.00;;;;;;5049859;28;20027;-46
2023/03/19 01:36:34;;;;;;;43.78;35.63;;;8.70;95.00;;;;;;5053572;28;20423;-45
2023/03/19 01:39:01;;;;;;;42.38;35.67;;;8.70;95.10;;;;;;5038232;28;20120;-46
2023/03/19 01:41:27;;;;;;;46.00;37.38;;;8.80;95.00;;;;;;5052804;28;20017;-46
2023/03/19 01:43:54;;;;;;;41.95;34.35;;;8.80;95.00;;;;;;5038832;28;20505;-45
2023/03/19 01:46:33;;;;;;;38.95;31.92;;;8.80;95.00;;;;;;5033540;28;20079;-44
2023/03/19 01:49:05;;;;;;;40.80;33.67;;;8.80;95.00;;;;;;5034719;28;20044;-47
2023/03/19 01:51:40;;;;;;;36.88;31.90;;;8.90;95.00;;;;;;5034775;28;20033;-44
2023/03/19 01:54:14;;;;;;;35.05;31.25;;;8.90;95.00;;;;;;5033400;28;20041;-48
2023/03/19 01:56:43;;;;;;;32.67;27.75;;;8.90;94.90;;;;;;5034576;28;20021;-44
2023/03/19 01:59:27;;;;;;;31.98;26.40;;;8.90;94.90;;;;;;5034530;28;20044;-44
2023/03/19 02:02:02;;;;;;;35.80;26.85;;;9.00;94.90;;;;;;5034363;28;20026;-44
2023/03/19 02:04:35;;;;;;;28.52;25.45;;;8.90;94.90;;;;;;5046467;28;20458;-43
2023/03/19 02:07:06;;;;;;;28.27;23.50;;;9.00;94.90;;;;;;5047298;28;20045;-43
2023/03/19 02:09:33;;;;;;;27.85;24.52;;;9.00;94.80;;;;;;5034718;28;20022;-44
2023/03/19 02:12:01;;;;;;;27.17;24.02;;;9.00;94.80;;;;;;5034283;28;20087;-43
2023/03/19 02:14:27;;;;;;;25.50;22.13;;;9.00;94.80;;;;;;5034462;28;20076;-46
2023/03/19 02:16:54;;;;;;;23.17;20.67;;;9.10;94.70;;;;;;5035419;28;20091;-44
2023/03/19 02:19:59;;;;;;;23.92;21.33;;;9.00;94.70;;;;;;5034423;28;20112;-43
2023/03/19 02:22:28;;;;;;;25.63;20.95;;;9.00;94.70;;;;;;5034076;28;20056;-44
2023/03/19 02:25:20;;;;;;;21.98;19.23;;;9.00;94.70;;;;;;5033026;28;20036;-47
2023/03/19 02:27:47;;;;;;;22.45;19.60;;;9.00;94.60;;;;;;5053486;28;20043;-42
2023/03/19 02:30:28;;;;;;;23.42;19.98;;;9.00;94.60;;;;;;5048236;28;20080;-42
2023/03/19 02:32:55;;;;;;;21.98;18.17;;;9.00;94.60;;;;;;5039363;28;20099;-46
2023/03/19 02:35:26;;;;;;;19.85;17.65;;;9.00;94.60;;;;;;5053689;28;20037;-42
2023/03/19 02:37:55;;;;;;;20.35;17.38;;;9.00;94.60;;;;;;5052791;28;20036;-49
2023/03/19 02:40:33;;;;;;;20.67;17.55;;;9.00;94.60;;;;;;5033895;28;20366;-42
2023/03/19 02:43:05;;;;;;;19.35;17.35;;;9.00;94.60;;;;;;5037646;28;20037;-44
2023/03/19 02:45:32;;;;;;;19.00;16.25;;;9.00;94.50;;;;;;5045331;28;20248;-46
2023/03/19 02:48:02;;;;;;;19.38;16.90;;;9.00;94.50;;;;;;5033609;28;20447;-43
2023/03/19 02:50:29;;;;;;;20.05;17.15;;;8.90;94.40;;;;;;5036670;28;20051;-43
2023/03/19 02:52:57;;;;;;;21.73;17.52;;;8.90;94.40;;;;;;5042283;28;20036;-42
2023/03/19 02:55:22;;;;;;;23.02;18.88;;;8.90;94.50;;;;;;5033554;28;20473;-43
2023/03/19 02:57:49;;;;;;;21.55;17.85;;;9.00;94.50;;;;;;5033122;28;20041;-45
2023/03/19 03:00:17;;;;;;;21.08;16.98;;;9.00;94.50;;;;;;5033767;28;20030;-44
2023/03/19 03:02:44;;;;;;;20.58;17.55;;;9.00;94.50;;;;;;5033024;28;20134;-42
2023/03/19 03:05:10;;;;;;;19.33;17.42;;;9.00;94.40;;;;;;5048527;28;20025;-44
2023/03/19 03:07:39;;;;;;;19.85;17.75;;;9.00;94.40;;;;;;5051927;28;20041;-44
2023/03/19 03:10:07;;;;;;;18.85;16.83;;;9.00;94.40;;;;;;5033190;28;20478;-43
2023/03/19 03:12:34;;;;;;;22.48;17.10;;;8.90;94.40;;;;;;5043668;28;20377;-44
2023/03/19 03:15:01;;;;;;;18.40;16.48;;;9.00;94.40;;;;;;5052863;28;20472;-43
2023/03/19 03:17:30;;;;;;;18.88;16.83;;;8.90;94.40;;;;;;5043572;28;20054;-42
2023/03/19 03:19:56;;;;;;;17.92;16.02;;;8.90;94.30;;;;;;5040324;28;20094;-42
2023/03/19 03:22:23;;;;;;;19.58;17.25;;;8.90;94.30;;;;;;5052679;28;20621;-43
2023/03/19 03:24:50;;;;;;;18.75;16.75;;;8.90;94.30;;;;;;5051338;28;20495;-42
2023/03/19 03:27:19;;;;;;;20.70;17.58;;;8.80;94.30;;;;;;5041863;28;20033;-42
2023/03/19 03:29:49;;;;;;;18.27;16.38;;;8.80;94.30;;;;;;5032528;28;20026;-43
2023/03/19 03:32:16;;;;;;;18.40;16.15;;;8.70;94.30;;;;;;5035641;28;20113;-42
2023/03/19 03:34:45;;;;;;;17.98;16.08;;;8.80;94.30;;;;;;5049921;28;20025;-43
2023/03/19 03:37:11;;;;;;;19.60;17.52;;;8.70;94.30;;;;;;5052149;28;20032;-43
2023/03/19 03:39:38;;;;;;;19.02;16.95;;;8.70;94.20;;;;;;5052264;28;20091;-43
2023/03/19 03:42:05;;;;;;;20.15;17.60;;;8.70;94.20;;;;;;5039347;28;20029;-42
2023/03/19 03:44:31;;;;;;;20.48;17.08;;;8.60;94.20;;;;;;5032812;28;20039;-42
2023/03/19 03:46:58;;;;;;;20.48;17.55;;;8.60;94.20;;;;;;5032594;28;20026;-43
2023/03/19 03:49:27;;;;;;;17.33;15.52;;;8.60;94.20;;;;;;5048136;28;20592;-43
2023/03/19 03:51:53;;;;;;;22.58;17.85;;;8.60;94.20;;;;;;5044547;28;20029;-42
2023/03/19 03:54:20;;;;;;;19.27;16.90;;;8.60;94.20;;;;;;5050528;28;20460;-44
2023/03/19 03:56:46;;;;;;;19.45;15.68;;;8.60;94.20;;;;;;5032269;28;20417;-42
2023/03/19 03:59:15;;;;;;;20.67;16.88;;;8.50;94.20;;;;;;5032555;28;20037;-43
2023/03/19 04:01:42;;;;;;;18.67;16.67;;;8.50;94.20;;;;;;5032515;28;20335;-43
2023/03/19 04:04:09;;;;;;;18.83;16.83;;;8.50;94.30;;;;;;5032530;28;20054;-43
2023/03/19 04:06:36;;;;;;;20.55;17.67;;;8.50;94.30;;;;;;5032216;28;20026;-44
2023/03/19 04:09:04;;;;;;;17.85;16.05;;;8.40;94.30;;;;;;5034429;28;20485;-44
2023/03/19 04:11:30;;;;;;;19.15;17.08;;;8.40;94.30;;;;;;5051798;28;20033;-43
2023/03/19 04:13:57;;;;;;;19.30;16.15;;;8.50;94.30;;;;;;5051643;28;20028;-43
2023/03/19 04:16:27;;;;;;;18.20;16.27;;;8.40;94.30;;;;;;5045454;28;20650;-44
2023/03/19 04:18:54;;;;;;;;;;;8.40;94.30;;;;;;5052707;28;20115;-44
2023/03/19 04:21:25;;;;;;;19.17;16.70;;;8.40;94.40;;;;;;5046619;28;20000;-43
2023/03/19 04:23:52;;;;;;;19.30;17.30;;;8.40;94.40;;;;;;5032329;28;20037;-43
2023/03/19 04:26:21;;;;;;;20.67;18.35;;;8.40;94.50;;;;;;5033041;28;20026;-45
2023/03/19 04:28:48;;;;;;;22.77;19.23;;;8.40;94.50;;;;;;5031341;28;20033;-47
2023/03/19 04:31:15;;;;;;;19.98;17.75;;;8.40;94.50;;;;;;5032226;28;20347;-46
2023/03/19 04:33:42;;;;;;;20.90;18.73;;;8.40;94.50;;;;;;5044634;28;20037;-46
2023/03/19 04:36:11;;;;;;;21.70;19.38;;;8.40;94.50;;;;;;5052176;28;20033;-46
2023/03/19 04:38:38;;;;;;;20.10;17.97;;;8.40;94.50;;;;;;5043088;28;20033;-47
2023/03/19 04:41:05;;;;;;;21.65;19.00;;;8.40;94.60;;;;;;5051811;28;20036;-54
2023/03/19 04:43:32;;;;;;;21.75;19.48;;;8.40;94.60;;;;;;5044386;28;20115;-52
2023/03/19 04:45:59;;;;;;;22.38;19.20;;;8.50;94.60;;;;;;5032141;28;20025;-60
2023/03/19 04:48:26;;;;;;;21.42;19.13;;;8.50;94.60;;;;;;5035218;28;20513;-61
2023/03/19 04:50:56;;;;;;;21.15;18.98;;;8.50;94.60;;;;;;5035574;28;20773;-60
2023/03/19 04:53:23;;;;;;;;;;;8.50;94.60;;;;;;5035703;28;20048;-58
2023/03/19 04:55:50;;;;;;;21.52;19.13;;;8.50;94.60;;;;;;5044794;28;19945;-58
2023/03/19 04:58:17;;;;;;;22.08;19.77;;;8.50;94.60;;;;;;5035507;28;20527;-59
2023/03/19 05:00:46;;;;;;;22.27;19.98;;;8.60;94.70;;;;;;5035816;28;20025;-59
2023/03/19 05:03:14;;;;;;;23.77;20.15;;;8.60;94.60;;;;;;5035572;28;20044;-58
2023/03/19 05:05:41;;;;;;;22.83;19.90;;;8.60;94.70;;;;;;5035136;28;20025;-58
2023/03/19 05:08:08;;;;;;;23.30;20.80;;;8.60;94.70;;;;;;5035737;28;20339;-55
2023/03/19 05:10:36;;;;;;;26.17;22.73;;;8.70;94.70;;;;;;5041268;28;20112;-55
2023/03/19 05:13:04;;;;;;;24.83;21.83;;;8.70;94.70;;;;;;5055187;28;20056;-56
2023/03/19 05:15:31;;;;;;;26.83;23.63;;;8.70;94.70;;;;;;5042583;28;20039;-52
2023/03/19 05:17:57;;;;;;;27.48;22.60;;;8.70;94.70;;;;;;5055276;28;20043;-49
2023/03/19 05:20:30;;;;;;;25.75;22.48;;;8.70;94.70;;;;;;5044643;28;20033;-50
2023/03/19 05:22:58;;;;;;;24.40;21.88;;;8.70;94.70;;;;;;5034971;28;20474;-49
2023/03/19 05:25:25;;;;;;;24.40;21.85;;;8.70;94.60;;;;;;5034139;28;20118;-48
2023/03/19 05:27:53;;;;;;;25.50;21.75;;;8.70;94.60;;;;;;5042422;28;20048;-48
2023/03/19 05:30:20;;;;;;;25.00;22.42;;;8.70;94.60;;;;;;5039432;28;20099;-49
2023/03/19 05:32:49;;;;;;;24.52;21.98;;;8.60;94.60;;;;;;5046043;28;20036;-54
2023/03/19 05:35:17;;;;;;;25.45;22.75;;;8.70;94.60;;;;;;5054955;28;20453;-50
2023/03/19 05:37:43;;;;;;;23.80;21.40;;;8.70;94.70;;;;;;5050624;28;20352;-49
2023/03/19 05:40:12;;;;;;;24.58;21.92;;;8.70;94.70;;;;;;5050500;28;20084;-47
2023/03/19 05:42:41;;;;;;;25.63;22.15;;;8.70;94.70;;;;;;5041546;28;20452;-46
2023/03/19 05:45:08;;;;;;;24.98;22.38;;;8.70;94.70;;;;;;5033654;28;20117;-46
2023/03/19 05:47:35;;;;;;;26.05;23.23;;;8.60;94.60;;;;;;5034787;28;20037;-47
2023/03/19 05:50:02;;;;;;;24.80;21.80;;;8.70;94.70;;;;;;5039782;28;20029;-48
2023/03/19 05:52:32;;;;;;;24.20;21.70;;;8.70;94.60;;;;;;5039213;28;20038;-47
2023/03/19 05:54:59;;;;;;;26.40;23.33;;;8.70;94.70;;;;;;5034532;28;20407;-46
2023/03/19 05:57:25;;;;;;;26.33;23.48;;;8.70;94.70;;;;;;5042053;28;20065;-48
2023/03/19 05:59:52;;;;;;;25.60;22.42;;;8.70;94.70;;;;;;5054017;28;20092;-46
2023/03/19 06:02:19;;;;;;;26.10;23.40;;;8.80;94.70;;;;;;5035980;28;20020;-48
2023/03/19 06:04:51;;;;;;;24.80;22.13;;;8.80;94.70;;;;;;5053741;28;20442;-45
2023/03/19 06:07:17;;;;;;;24.77;22.23;;;8.80;94.70;;;;;;5052629;28;20044;-45
2023/03/19 06:09:44;;;;;;;24.40;21.23;;;8.80;94.70;;;;;;5036190;28;20034;-45
2023/03/19 06:12:10;;;;;;;24.88;21.77;;;8.90;94.70;;;;;;5034142;28;20105;-44
2023/03/19 06:14:36;;;;;;;24.70;22.10;;;8.90;94.70;;;;;;5050191;28;20435;-48
2023/03/19 06:17:06;;;;;;;24.05;21.55;;;8.90;94.70;;;;;;5051634;28;20105;-48
2023/03/19 06:19:33;;;;;;;27.63;22.38;;;8.90;94.60;;;;;;5050672;28;20040;-47
2023/03/19 06:22:03;;;;;;;24.83;21.65;;;9.00;94.60;;;;;;5048762;28;20060;-46
2023/03/19 06:24:31;;;;;;;22.83;20.38;;;9.00;94.60;;;;;;5047262;28;20047;-44
2023/03/19 06:26:56;;;;;;;27.55;21.85;;;9.00;94.70;;;;;;5050149;28;20029;-47
2023/03/19 06:29:24;;;;;;;23.88;20.77;;;9.00;94.60;;;;;;5048945;28;20032;-43
2023/03/19 06:31:51;;;;;;;23.25;20.80;;;9.10;94.70;;;;;;5053657;28;20154;-46
2023/03/19 06:34:17;;;;;;;25.40;22.58;;;9.10;94.60;;;;;;5036413;28;20037;-45
2023/03/19 06:36:44;;;;;;;24.15;21.50;;;9.20;94.60;;;;;;5035982;28;20033;-44
2023/03/19 06:39:11;;;;;;;26.83;22.38;;;9.20;94.50;;;;;;5049118;28;20017;-44
2023/03/19 06:41:38;;;;;;;25.63;22.88;;;9.20;94.60;;;;;;5051489;28;20401;-44
2023/03/19 06:44:04;;;;;;;23.70;21.30;;;9.30;94.60;;;;;;5048614;28;20041;-44
2023/03/19 06:46:34;;;;;;;21.75;19.45;;;9.40;94.50;;;;;;5051187;28;20029;-45
2023/03/19 06:49:01;;;;;;;24.63;20.65;;;9.40;94.50;;;;;;5048739;28;20039;-43
2023/03/19 06:51:28;;;;;;;21.15;18.95;;;9.40;94.50;;;;;;5048487;28;20112;-42
2023/03/19 06:53:55;;;;;;;24.20;20.40;;;9.50;94.50;;;;;;5046060;28;20029;-43
2023/03/19 06:56:22;;;;;;;22.27;19.98;;;9.50;94.30;;;;;;5046951;28;20126;-42
2023/03/19 06:58:49;;;;;;;21.70;19.48;;;9.50;94.20;;;;;;5051239;28;20036;-45
2023/03/19 07:01:16;;;;;;;22.92;19.63;;;9.40;94.00;;;;;;5033306;28;20030;-43
2023/03/19 07:03:43;;;;;;;20.80;18.50;;;9.50;94.00;;;;;;5041283;28;20044;-43
2023/03/19 07:06:10;;;;;;;19.38;17.42;;;9.50;94.00;;;;;;5040154;28;20028;-44
2023/03/19 07:08:37;;;;;;;19.50;17.00;;;9.50;94.00;;;;;;5034301;28;20481;-43
2023/03/19 07:11:07;;;;;;;20.42;18.17;;;9.40;93.90;;;;;;5041104;28;20041;-42
2023/03/19 07:13:37;;;;;;;21.52;19.27;;;9.40;93.90;;;;;;5044715;28;20358;-44
2023/03/19 07:16:05;;;;;;;20.23;17.50;;;9.40;93.90;;;;;;5044112;28;20134;-43
2023/03/19 07:18:32;;;;;;;19.08;17.00;;;9.50;93.90;;;;;;5047773;28;20469;-43
2023/03/19 07:20:59;;;;;;;22.60;18.30;;;9.60;93.90;;;;;;5037525;28;20017;-43
2023/03/19 07:23:28;;;;;;;23.17;18.08;;;9.60;94.00;;;;;;5052239;28;20021;-42
2023/03/19 07:25:54;;;;;;;17.35;15.55;;;9.70;94.00;;;;;;5051981;28;20021;-42
2023/03/19 07:28:20;;;;;;;19.23;17.13;;;9.90;94.00;;;;;;5040726;28;20039;-44
2023/03/19 07:30:47;;;;;;;17.27;15.20;;;9.90;93.90;;;;;;5045902;28;20036;-42
2023/03/19 07:33:17;;;;;;;19.75;16.98;;;9.90;93.90;;;;;;5049822;28;20028;-41
2023/03/19 07:35:44;;;;;;;18.52;16.63;;;10.10;93.80;;;;;;5048542;28;20039;-41
2023/03/19 07:38:13;;;;;;;18.83;16.90;;;10.20;93.60;;;;;;5050226;28;20043;-41
2023/03/19 07:40:39;;;;;;;18.48;16.58;;;10.40;93.60;;;;;;5051915;28;20082;-42
2023/03/19 07:43:06;;;;;;;17.45;15.75;;;10.70;93.60;;;;;;5040267;28;20034;-43
2023/03/19 07:45:32;;;;;;;16.38;14.75;;;10.90;93.20;;;;;;5032869;28;20055;-43
2023/03/19 07:48:02;;;;;;;14.73;13.23;;;11.00;92.70;;;;;;5038599;28;20366;-44
2023/03/19 07:50:31;;;;;;;13.88;12.52;;;10.90;92.30;;;;;;5044199;28;20032;-42
2023/03/19 07:52:58;;;;;;;15.48;13.98;;;11.00;92.00;;;;;;5052149;28;20033;-42
2023/03/19 07:55:28;;;;;;;14.82;13.10;;;11.00;91.80;;;;;;5052460;28;20052;-42
2023/03/19 07:57:55;;;;;;;15.43;13.82;;;11.00;91.90;;;;;;5041731;28;20044;-42
2023/03/19 08:00:22;;;;;;;15.55;14.05;;;10.90;91.80;;;;;;5042225;28;20041;-42
2023/03/19 08:02:48;;;;;;;14.40;13.00;;;10.90;91.70;;;;;;5032041;28;20033;-44
2023/03/19 08:05:15;;;;;;;14.88;13.30;;;10.90;91.70;;;;;;5047328;28;20370;-42
2023/03/19 08:07:48;;;;;;;14.45;13.05;;;10.80;91.70;;;;;;5046593;28;20037;-43
2023/03/19 08:10:15;;;;;;;13.80;12.25;;;10.80;91.80;;;;;;5043048;28;20513;-42
2023/03/19 08:12:44;;;;;;;14.90;13.07;;;10.80;91.80;;;;;;5040494;28;20037;-43
2023/03/19 08:15:11;;;;;;;17.13;14.93;;;10.90;92.00;;;;;;5051084;28;20039;-41
2023/03/19 08:17:41;;;;;;;15.98;14.20;;;11.00;92.20;;;;;;5049152;28;20041;-43
2023/03/19 08:20:15;;;;;;;16.48;14.70;;;11.00;92.00;;;;;;5047145;28;20079;-42
2023/03/19 08:22:48;;;;;;;14.52;13.02;;;11.10;91.80;;;;;;5053232;28;20026;-42
2023/03/19 08:25:14;;;;;;;15.13;13.63;;;11.20;91.50;;;;;;5053284;28;20055;-46
2023/03/19 08:27:43;;;;;;;14.98;13.45;;;11.40;92.00;;;;;;5054168;28;20036;-43
2023/03/19 08:30:11;;;;;;;14.98;13.60;;;11.70;91.70;;;;;;5055559;28;20033;-43
2023/03/19 08:32:38;;;;;;;14.23;12.73;;;11.70;91.00;;;;;;5049658;28;20393;-42
2023/03/19 08:35:06;;;;;;;14.02;12.60;;;11.70;90.60;;;;;;5046371;28;20021;-43
2023/03/19 08:37:32;;;;;;;13.73;12.43;;;11.70;90.20;;;;;;5048822;28;20032;-45
2023/03/19 08:39:59;;;;;;;13.18;11.88;;;11.70;90.30;;;;;;5041530;28;20082;-43
2023/03/19 08:42:29;;;;;;;13.57;11.50;;;11.80;90.20;;;;;;5048214;28;20435;-44
2023/03/19 08:44:55;;;;;;;15.00;12.82;;;11.80;90.50;;;;;;5047235;28;20430;-43
2023/03/19 08:47:23;;;;;;;15.27;13.68;;;11.70;90.10;;;;;;5060301;28;20025;-44
2023/03/19 08:49:50;;;;;;;13.23;11.80;;;11.70;90.10;;;;;;5046446;28;20056;-43
2023/03/19 08:52:18;;;;;;;14.18;12.77;;;11.70;90.30;;;;;;5053118;28;20021;-43
2023/03/19 08:54:49;;;;;;;16.52;12.50;;;11.90;90.20;;;;;;5046991;28;20108;-45
2023/03/19 08:57:16;;;;;;;14.15;12.75;;;12.00;90.30;;;;;;5044984;28;20022;-46
2023/03/19 08:59:43;;;;;;;12.95;11.70;;;12.10;90.10;;;;;;5055294;28;20385;-47
2023/03/19 09:02:13;;;;;;;13.27;11.88;;;12.20;89.90;;;;;;5045628;28;20472;-44
2023/03/19 09:04:43;;;;;;;13.60;11.80;;;12.20;89.50;;;;;;5044430;28;20033;-44
2023/03/19 09:07:15;;;;;;;12.43;10.70;;;12.20;89.20;;;;;;5037798;28;20053;-44
2023/03/19 09:09:42;;;;;;;14.05;12.50;;;12.20;89.30;;;;;;5044090;28;20037;-44
2023/03/19 09:12:12;;;;;;;12.23;10.95;;;12.30;89.50;;;;;;5049497;28;20033;-44
2023/03/19 09:14:38;;;;;;;;;;;12.20;89.20;;;;;;5049710;28;20053;-46
2023/03/19 09:17:10;;;;;;;13.93;11.55;;;12.10;89.00;;;;;;5054337;28;19921;-44
2023/03/19 09:19:36;;;;;;;12.68;11.38;;;12.00;89.40;;;;;;5051206;28;20021;-45
2023/03/19 09:22:04;;;;;;;14.15;12.18;;;12.00;89.20;;;;;;5045551;28;20043;-50
2023/03/19 09:24:31;;;;;;;12.95;11.70;;;11.90;89.40;;;;;;5054359;28;20588;-44
2023/03/19 09:26:58;;;;;;;12.43;11.23;;;11.90;89.50;;;;;;5053782;28;20358;-44
2023/03/19 09:29:24;;;;;;;13.43;12.07;;;11.90;89.90;;;;;;5038360;28;20030;-44
2023/03/19 09:31:51;;;;;;;13.88;12.38;;;11.90;90.10;;;;;;5046465;28;20052;-45
2023/03/19 09:34:18;;;;;;;13.85;12.43;;;11.90;90.00;;;;;;5053613;28;20037;-44
2023/03/19 09:36:45;;;;;;;13.48;12.18;;;12.00;90.20;;;;;;5040452;28;20033;-45
2023/03/19 09:39:12;;;;;;;12.63;11.43;;;12.10;90.30;;;;;;5048145;28;20067;-44
2023/03/19 09:42:09;;;;;;;12.63;11.40;;;12.40;90.30;;;;;;5051780;28;20124;-45
2023/03/19 09:44:38;;;;;;;12.02;10.88;;;12.60;90.30;;;;;;5012284;28;20034;-46
2023/03/19 09:47:25;;;;;;;13.00;11.70;;;12.80;89.30;;;;;;5034312;28;20347;-46
2023/03/19 09:49:57;;;;;;;12.40;11.20;;;12.90;88.40;;;;;;5033123;28;20110;-43
2023/03/19 09:52:44;;;;;;;13.48;12.13;;;13.10;88.20;;;;;;5043303;28;20041;-43
2023/03/19 09:55:47;;;;;;;11.70;10.38;;;13.30;88.00;;;;;;5052207;28;20056;-48
2023/03/19 09:58:17;;;;;;;12.20;10.98;;;13.70;87.20;;;;;;5024989;28;20037;-45
2023/03/19 10:00:49;;;;;;;14.25;10.90;;;13.90;86.10;;;;;;5035920;28;20034;-44
2023/03/19 10:03:52;;;;;;;12.13;10.93;;;14.30;85.50;;;;;;5051448;28;20429;-44
2023/03/19 10:06:34;;;;;;;11.23;10.07;;;14.90;84.50;;;;;;5045585;28;20108;-44
2023/03/19 10:09:25;;;;;;;11.00;9.93;;;15.30;82.30;;;;;;5048543;28;20120;-44
2023/03/19 10:12:11;;;;;;;10.70;9.35;;;15.10;80.50;;;;;;5049413;28;20033;-44
2023/03/19 10:15:14;;;;;;;13.02;9.07;;;15.00;79.90;;;;;;5041022;28;20037;-46
2023/03/19 10:17:56;;;;;;;11.77;10.43;;;14.80;80.20;;;;;;5036393;28;20045;-43
2023/03/19 10:20:37;;;;;;;9.65;8.75;;;14.40;81.00;;;;;;5045340;28;20029;-45
2023/03/19 10:23:40;;;;;;;11.02;9.93;;;14.30;81.50;;;;;;5043597;28;20095;-44
2023/03/19 10:26:14;;;;;;;10.15;9.10;;;14.20;82.10;;;;;;5047040;28;20028;-43
2023/03/19 10:28:46;;;;;;;10.18;9.15;;;14.20;82.50;;;;;;5050064;28;20032;-44
2023/03/19 10:31:34;;;;;;;12.05;10.68;;;14.10;82.90;;;;;;5045492;28;20048;-44
2023/03/19 10:34:21;;;;;;;11.77;10.57;;;14.00;82.10;;;;;;5048222;28;20055;-45
2023/03/19 10:36:47;;;;;;;12.82;10.80;;;13.90;82.00;;;;;;5045907;28;20455;-43
2023/03/19 10:39:20;;;;;;;11.05;9.48;;;13.70;82.50;;;;;;5051122;28;20051;-45
2023/03/19 10:42:26;;;;;;;12.55;10.98;;;13.50;82.70;;;;;;5044048;28;20025;-46
2023/03/19 10:45:16;;;;;;;12.77;11.52;;;13.50;83.10;;;;;;5023798;28;20037;-46
2023/03/19 10:47:42;;;;;;;11.95;10.63;;;13.50;83.00;;;;;;5038338;28;20367;-44
2023/03/19 10:50:22;;;;;;;13.13;11.02;;;13.60;83.50;;;;;;5032634;28;20095;-45
2023/03/19 10:53:06;;;;;;;13.52;11.98;;;13.70;83.40;;;;;;5049430;28;20068;-46
2023/03/19 10:55:35;;;;;;;12.02;10.35;;;13.90;82.90;;;;;;5044992;28;20036;-42
2023/03/19 10:58:03;;;;;;;12.60;11.35;;;13.80;81.90;;;;;;5040857;28;20147;-44
2023/03/19 11:00:34;;;;;;;13.23;11.90;;;13.80;81.70;;;;;;5037673;28;20021;-44
2023/03/19 11:03:21;;;;;;;13.13;11.70;;;13.60;82.20;;;;;;5046908;28;20439;-45
2023/03/19 11:06:13;;;;;;;14.13;12.60;;;13.40;82.20;;;;;;5043833;28;20028;-44
2023/03/19 11:08:40;;;;;;;13.20;11.30;;;13.30;82.50;;;;;;5050178;28;20033;-45
2023/03/19 11:11:23;;;;;;;12.95;11.50;;;13.30;83.40;;;;;;5047942;28;20067;-45
2023/03/19 11:13:49;;;;;;;11.63;10.40;;;13.40;83.30;;;;;;5048685;28;20083;-45
2023/03/19 11:16:16;;;;;;;12.20;10.75;;;13.50;83.10;;;;;;5050112;28;20052;-44
2023/03/19 11:18:50;;;;;;;10.23;9.20;;;13.80;82.90;;;;;;5045900;28;20024;-43
2023/03/19 11:21:31;;;;;;;9.60;8.55;;;14.10;81.10;;;;;;5041272;28;20022;-48
2023/03/19 11:24:03;;;;;;;10.90;9.23;;;14.50;80.20;;;;;;5047806;28;20021;-47
2023/03/19 11:26:30;;;;;;;10.07;9.00;;;14.90;78.20;;;;;;5040617;28;20029;-44
2023/03/19 11:29:02;;;;;;;10.00;8.82;;;15.00;78.40;;;;;;5040027;28;20032;-45
2023/03/19 11:32:00;;;;;;;10.65;9.35;;;15.20;78.00;;;;;;5038030;28;20032;-44
2023/03/19 11:34:51;;;;;;;9.55;8.55;;;15.50;76.40;;;;;;5037780;28;20112;-44
2023/03/19 11:37:32;;;;;;;8.43;7.53;;;15.50;76.10;;;;;;5040730;28;20362;-46
2023/03/19 11:40:22;;;;;;;8.48;7.43;;;15.80;76.30;;;;;;5046967;28;20025;-44
2023/03/19 11:43:06;;;;;;;8.63;7.72;;;15.90;75.60;;;;;;5048937;28;20100;-45
2023/03/19 11:45:48;;;;;;;11.93;8.60;;;15.90;73.90;;;;;;5051872;28;20075;-46
2023/03/19 11:48:21;;;;;;;8.98;7.55;;;15.60;73.10;;;;;;5047202;28;20037;-45
2023/03/19 11:51:04;;;;;;;9.27;7.70;;;15.50;73.10;;;;;;5048202;28;20136;-44
2023/03/19 11:53:49;;;;;;;7.38;6.63;;;15.30;73.70;;;;;;5039191;28;20033;-44
2023/03/19 11:56:34;;;;;;;8.05;7.07;;;15.30;74.00;;;;;;5034305;28;20056;-45
2023/03/19 11:59:27;;;;;;;7.63;5.97;;;15.30;73.30;;;;;;5044401;28;20056;-44
2023/03/19 12:02:30;;;;;;;8.65;6.30;;;15.20;73.40;;;;;;5051984;28;20057;-44
2023/03/19 12:05:17;;;;;;;7.15;5.75;;;15.20;73.50;;;;;;5044721;28;20025;-48
2023/03/19 12:08:23;;;;;;;6.50;5.47;;;15.10;72.50;;;;;;5039271;28;20048;-46
2023/03/19 12:11:19;;;;;;;5.25;4.72;;;14.90;72.70;;;;;;5038335;28;20032;-46
2023/03/19 12:14:26;;;;;;;6.18;4.60;;;15.00;72.90;;;;;;5012380;28;20072;-46
2023/03/19 12:17:19;;;;;;;5.90;4.60;;;15.30;73.10;;;;;;5009017;28;20048;-47
2023/03/19 12:20:10;;;;;;;6.53;4.15;;;15.40;71.60;;;;;;5048816;28;20064;-47
2023/03/19 12:23:03;;;;;;;4.80;3.78;;;15.10;69.40;;;;;;5052033;28;20113;-44
2023/03/19 12:25:34;;;;;;;5.03;4.00;;;15.10;70.00;;;;;;5042842;28;20039;-45
2023/03/19 12:28:08;;;;;;;8.00;4.70;;;15.20;71.30;;;;;;5051268;28;20463;-48
2023/03/19 12:30:48;;;;;;;5.03;3.88;;;15.20;71.00;;;;;;5050057;28;20025;-45
2023/03/19 12:33:50;;;;;;;8.10;4.50;;;15.20;71.20;;;;;;5048331;28;20047;-45
2023/03/19 12:36:26;;;;;;;5.50;4.55;;;15.10;70.20;;;;;;5033727;28;20450;-44
2023/03/19 12:39:09;;;;;;;5.68;4.63;;;15.00;70.20;;;;;;5049351;28;20123;-48
2023/03/19 12:41:41;;;;;;;5.53;4.55;;;14.80;70.70;;;;;;5049190;28;20024;-48
2023/03/19 12:44:25;;;;;;;6.97;4.82;;;14.90;72.10;;;;;;5048071;28;20021;-45
2023/03/19 12:47:15;;;;;;;6.65;4.60;;;14.90;71.40;;;;;;5048135;28;20029;-45
2023/03/19 12:50:02;;;;;;;6.65;5.07;;;15.00;71.30;;;;;;5038532;28;20112;-46
2023/03/19 12:52:55;;;;;;;6.00;4.75;;;15.00;70.20;;;;;;5016179;28;20468;-45
2023/03/19 12:55:26;;;;;;;5.75;4.70;;;15.10;71.60;;;;;;5036696;28;20566;-49
2023/03/19 12:58:10;;;;;;;6.47;4.63;;;15.20;71.30;;;;;;5049480;28;20357;-45